sensor_id;sensor_type;location;lat;lon;timestamp;pressure;altitude;pressure_sealevel;temperature
29423;BMP180;16399;51.686;8.684;2023-02-18T00:01:36;100352.00;;;9.50
29423;BMP180;16399;51.686;8.684;2023-02-18T00:04:38;100352.00;;;9.50
29423;BMP180;16399;51.686;8.684;2023-02-18T00:07:41;100349.00;;;9.50
29423;BMP180;16399;51.686;8.684;2023-02-18T00:10:43;100344.00;;;9.50
29423;BMP180;16399;51.686;8.684;2023-02-18T00:13:53;100325.00;;;9.50
29423;BMP180;16399;51.686;8.684;2023-02-18T00:16:56;100341.00;;;9.40
29423;BMP180;16399;51.686;8.684;2023-02-18T00:19:58;100342.00;;;9.40
29423;BMP180;16399;51.686;8.684;2023-02-18T00:23:01;100343.00;;;9.40
29423;BMP180;16399;51.686;8.684;2023-02-18T00:26:05;100336.00;;;9.40
29423;BMP180;16399;51.686;8.684;2023-02-18T00:29:08;100334.00;;;9.40
29423;BMP180;16399;51.686;8.684;2023-02-18T00:32:10;100344.00;;;9.40
29423;BMP180;16399;51.686;8.684;2023-02-18T00:35:13;100343.00;;;9.40
29423;BMP180;16399;51.686;8.684;2023-02-18T00:38:15;100334.00;;;9.40
29423;BMP180;16399;51.686;8.684;2023-02-18T00:41:19;100343.00;;;9.40
29423;BMP180;16399;51.686;8.684;2023-02-18T00:44:21;100337.00;;;9.40
29423;BMP180;16399;51.686;8.684;2023-02-18T00:47:24;100338.00;;;9.40
29423;BMP180;16399;51.686;8.684;2023-02-18T00:50:26;100334.00;;;9.40
29423;BMP180;16399;51.686;8.684;2023-02-18T00:53:29;100337.00;;;9.40
29423;BMP180;16399;51.686;8.684;2023-02-18T00:56:31;100331.00;;;9.40
29423;BMP180;16399;51.686;8.684;2023-02-18T00:59:34;100319.00;;;9.40
29423;BMP180;16399;51.686;8.684;2023-02-18T01:02:36;100332.00;;;9.40
29423;BMP180;16399;51.686;8.684;2023-02-18T01:05:38;100323.00;;;9.40
29423;BMP180;16399;51.686;8.684;2023-02-18T01:08:41;100320.00;;;9.40
29423;BMP180;16399;51.686;8.684;2023-02-18T01:11:44;100319.00;;;9.50
29423;BMP180;16399;51.686;8.684;2023-02-18T01:14:46;100306.00;;;9.50
29423;BMP180;16399;51.686;8.684;2023-02-18T01:17:49;100309.00;;;9.40
29423;BMP180;16399;51.686;8.684;2023-02-18T01:20:52;100318.00;;;9.40
29423;BMP180;16399;51.686;8.684;2023-02-18T01:23:54;100304.00;;;9.40
29423;BMP180;16399;51.686;8.684;2023-02-18T01:26:56;100311.00;;;9.40
29423;BMP180;16399;51.686;8.684;2023-02-18T01:29:59;100307.00;;;9.40
29423;BMP180;16399;51.686;8.684;2023-02-18T01:33:01;100297.00;;;9.40
29423;BMP180;16399;51.686;8.684;2023-02-18T01:36:04;100299.00;;;9.50
29423;BMP180;16399;51.686;8.684;2023-02-18T01:39:06;100292.00;;;9.50
29423;BMP180;16399;51.686;8.684;2023-02-18T01:42:20;100316.00;;;9.50
29423;BMP180;16399;51.686;8.684;2023-02-18T01:48:48;100309.00;;;9.50
29423;BMP180;16399;51.686;8.684;2023-02-18T01:51:53;100312.00;;;9.50
29423;BMP180;16399;51.686;8.684;2023-02-18T01:54:56;100289.00;;;9.50
29423;BMP180;16399;51.686;8.684;2023-02-18T01:57:58;100304.00;;;9.50
29423;BMP180;16399;51.686;8.684;2023-02-18T02:01:01;100298.00;;;9.50
29423;BMP180;16399;51.686;8.684;2023-02-18T02:04:03;100285.00;;;9.60
29423;BMP180;16399;51.686;8.684;2023-02-18T02:07:06;100291.00;;;9.60
29423;BMP180;16399;51.686;8.684;2023-02-18T02:10:10;100283.00;;;9.60
29423;BMP180;16399;51.686;8.684;2023-02-18T02:13:37;100276.00;;;9.60
29423;BMP180;16399;51.686;8.684;2023-02-18T02:16:46;100270.00;;;9.60
29423;BMP180;16399;51.686;8.684;2023-02-18T02:23:52;100263.00;;;9.60
29423;BMP180;16399;51.686;8.684;2023-02-18T02:27:11;100257.00;;;9.60
29423;BMP180;16399;51.686;8.684;2023-02-18T02:34:01;100251.00;;;9.70
29423;BMP180;16399;51.686;8.684;2023-02-18T02:37:22;100251.00;;;9.70
29423;BMP180;16399;51.686;8.684;2023-02-18T02:47:16;100221.00;;;9.70
29423;BMP180;16399;51.686;8.684;2023-02-18T02:50:30;100229.00;;;9.70
29423;BMP180;16399;51.686;8.684;2023-02-18T02:53:34;100233.00;;;9.70
29423;BMP180;16399;51.686;8.684;2023-02-18T02:56:36;100230.00;;;9.70
29423;BMP180;16399;51.686;8.684;2023-02-18T02:59:42;100219.00;;;9.80
29423;BMP180;16399;51.686;8.684;2023-02-18T03:03:02;100213.00;;;9.80
29423;BMP180;16399;51.686;8.684;2023-02-18T03:06:11;100212.00;;;9.80
29423;BMP180;16399;51.686;8.684;2023-02-18T03:13:15;100195.00;;;9.80
29423;BMP180;16399;51.686;8.684;2023-02-18T03:16:22;100180.00;;;9.80
29423;BMP180;16399;51.686;8.684;2023-02-18T03:19:39;100181.00;;;9.80
29423;BMP180;16399;51.686;8.684;2023-02-18T03:22:45;100172.00;;;9.80
29423;BMP180;16399;51.686;8.684;2023-02-18T03:25:48;100160.00;;;9.80
29423;BMP180;16399;51.686;8.684;2023-02-18T03:28:52;100154.00;;;9.80
29423;BMP180;16399;51.686;8.684;2023-02-18T03:32:00;100155.00;;;9.90
29423;BMP180;16399;51.686;8.684;2023-02-18T03:35:09;100155.00;;;9.90
29423;BMP180;16399;51.686;8.684;2023-02-18T03:38:11;100146.00;;;9.90
29423;BMP180;16399;51.686;8.684;2023-02-18T03:41:12;100147.00;;;9.90
29423;BMP180;16399;51.686;8.684;2023-02-18T03:44:15;100149.00;;;9.90
29423;BMP180;16399;51.686;8.684;2023-02-18T03:47:17;100136.00;;;9.90
29423;BMP180;16399;51.686;8.684;2023-02-18T03:50:19;100138.00;;;9.90
29423;BMP180;16399;51.686;8.684;2023-02-18T03:53:22;100127.00;;;9.90
29423;BMP180;16399;51.686;8.684;2023-02-18T03:56:24;100129.00;;;9.90
29423;BMP180;16399;51.686;8.684;2023-02-18T03:59:26;100126.00;;;9.90
29423;BMP180;16399;51.686;8.684;2023-02-18T04:02:28;100119.00;;;9.90
29423;BMP180;16399;51.686;8.684;2023-02-18T04:05:31;100130.00;;;9.90
29423;BMP180;16399;51.686;8.684;2023-02-18T04:08:33;100122.00;;;9.90
29423;BMP180;16399;51.686;8.684;2023-02-18T04:11:37;100111.00;;;9.90
29423;BMP180;16399;51.686;8.684;2023-02-18T04:14:39;100107.00;;;10.00
29423;BMP180;16399;51.686;8.684;2023-02-18T04:17:42;100105.00;;;9.90
29423;BMP180;16399;51.686;8.684;2023-02-18T04:20:44;100102.00;;;10.00
29423;BMP180;16399;51.686;8.684;2023-02-18T04:23:46;100101.00;;;10.00
29423;BMP180;16399;51.686;8.684;2023-02-18T04:26:49;100096.00;;;10.00
29423;BMP180;16399;51.686;8.684;2023-02-18T04:29:51;100091.00;;;10.00
29423;BMP180;16399;51.686;8.684;2023-02-18T04:32:54;100091.00;;;10.00
29423;BMP180;16399;51.686;8.684;2023-02-18T04:35:56;100092.00;;;10.10
29423;BMP180;16399;51.686;8.684;2023-02-18T04:38:58;100094.00;;;10.00
29423;BMP180;16399;51.686;8.684;2023-02-18T04:42:01;100096.00;;;10.10
29423;BMP180;16399;51.686;8.684;2023-02-18T04:45:05;100091.00;;;10.10
29423;BMP180;16399;51.686;8.684;2023-02-18T04:48:07;100084.00;;;10.10
29423;BMP180;16399;51.686;8.684;2023-02-18T04:51:09;100073.00;;;10.10
29423;BMP180;16399;51.686;8.684;2023-02-18T04:54:12;100069.00;;;10.10
29423;BMP180;16399;51.686;8.684;2023-02-18T04:57:14;100054.00;;;10.10
29423;BMP180;16399;51.686;8.684;2023-02-18T05:00:18;100050.00;;;10.20
29423;BMP180;16399;51.686;8.684;2023-02-18T05:03:21;100042.00;;;10.20
29423;BMP180;16399;51.686;8.684;2023-02-18T05:06:23;100046.00;;;10.20
29423;BMP180;16399;51.686;8.684;2023-02-18T05:09:25;100044.00;;;10.20
29423;BMP180;16399;51.686;8.684;2023-02-18T05:12:27;100040.00;;;10.20
29423;BMP180;16399;51.686;8.684;2023-02-18T05:15:30;100033.00;;;10.20
29423;BMP180;16399;51.686;8.684;2023-02-18T05:18:32;100035.00;;;10.20
29423;BMP180;16399;51.686;8.684;2023-02-18T05:21:34;100027.00;;;10.20
29423;BMP180;16399;51.686;8.684;2023-02-18T05:24:37;100032.00;;;10.20
29423;BMP180;16399;51.686;8.684;2023-02-18T05:27:39;100029.00;;;10.20
29423;BMP180;16399;51.686;8.684;2023-02-18T05:30:41;100018.00;;;10.20
29423;BMP180;16399;51.686;8.684;2023-02-18T05:33:44;100015.00;;;10.20
29423;BMP180;16399;51.686;8.684;2023-02-18T05:36:46;100012.00;;;10.20
29423;BMP180;16399;51.686;8.684;2023-02-18T05:39:48;100013.00;;;10.20
29423;BMP180;16399;51.686;8.684;2023-02-18T05:42:50;100006.00;;;10.20
29423;BMP180;16399;51.686;8.684;2023-02-18T05:45:53;100005.00;;;10.20
29423;BMP180;16399;51.686;8.684;2023-02-18T05:48:55;100009.00;;;10.20
29423;BMP180;16399;51.686;8.684;2023-02-18T05:51:57;99983.00;;;10.20
29423;BMP180;16399;51.686;8.684;2023-02-18T05:55:00;99986.00;;;10.20
29423;BMP180;16399;51.686;8.684;2023-02-18T05:58:02;99981.00;;;10.20
29423;BMP180;16399;51.686;8.684;2023-02-18T06:01:05;99972.00;;;10.20
29423;BMP180;16399;51.686;8.684;2023-02-18T06:04:07;99979.00;;;10.20
29423;BMP180;16399;51.686;8.684;2023-02-18T06:07:10;99964.00;;;10.20
29423;BMP180;16399;51.686;8.684;2023-02-18T06:10:12;99957.00;;;10.20
29423;BMP180;16399;51.686;8.684;2023-02-18T06:13:14;99956.00;;;10.20
29423;BMP180;16399;51.686;8.684;2023-02-18T06:16:17;99951.00;;;10.20
29423;BMP180;16399;51.686;8.684;2023-02-18T06:19:19;99951.00;;;10.20
29423;BMP180;16399;51.686;8.684;2023-02-18T06:22:21;99956.00;;;10.20
29423;BMP180;16399;51.686;8.684;2023-02-18T06:25:24;99941.00;;;10.20
29423;BMP180;16399;51.686;8.684;2023-02-18T06:28:26;99948.00;;;10.20
29423;BMP180;16399;51.686;8.684;2023-02-18T06:31:28;99933.00;;;10.20
29423;BMP180;16399;51.686;8.684;2023-02-18T06:34:30;99940.00;;;10.20
29423;BMP180;16399;51.686;8.684;2023-02-18T06:37:33;99949.00;;;10.20
29423;BMP180;16399;51.686;8.684;2023-02-18T06:40:35;99941.00;;;10.20
29423;BMP180;16399;51.686;8.684;2023-02-18T06:43:38;99939.00;;;10.20
29423;BMP180;16399;51.686;8.684;2023-02-18T06:46:40;99933.00;;;10.20
29423;BMP180;16399;51.686;8.684;2023-02-18T06:49:42;99927.00;;;10.20
29423;BMP180;16399;51.686;8.684;2023-02-18T06:52:45;99941.00;;;10.20
29423;BMP180;16399;51.686;8.684;2023-02-18T06:55:47;99938.00;;;10.20
29423;BMP180;16399;51.686;8.684;2023-02-18T06:58:50;99940.00;;;10.20
29423;BMP180;16399;51.686;8.684;2023-02-18T07:01:52;99950.00;;;10.20
29423;BMP180;16399;51.686;8.684;2023-02-18T07:04:54;99927.00;;;10.10
29423;BMP180;16399;51.686;8.684;2023-02-18T07:07:57;99936.00;;;10.20
29423;BMP180;16399;51.686;8.684;2023-02-18T07:10:59;99933.00;;;10.10
29423;BMP180;16399;51.686;8.684;2023-02-18T07:14:01;99942.00;;;10.10
29423;BMP180;16399;51.686;8.684;2023-02-18T07:17:12;99946.00;;;10.10
29423;BMP180;16399;51.686;8.684;2023-02-18T07:20:15;99951.00;;;10.10
29423;BMP180;16399;51.686;8.684;2023-02-18T07:23:17;99947.00;;;10.10
29423;BMP180;16399;51.686;8.684;2023-02-18T07:26:19;99933.00;;;10.00
29423;BMP180;16399;51.686;8.684;2023-02-18T07:29:21;99937.00;;;10.00
29423;BMP180;16399;51.686;8.684;2023-02-18T07:32:24;99928.00;;;10.10
29423;BMP180;16399;51.686;8.684;2023-02-18T07:35:26;99930.00;;;10.10
29423;BMP180;16399;51.686;8.684;2023-02-18T07:38:29;99927.00;;;10.10
29423;BMP180;16399;51.686;8.684;2023-02-18T07:41:31;99928.00;;;10.10
29423;BMP180;16399;51.686;8.684;2023-02-18T07:44:34;99937.00;;;10.10
29423;BMP180;16399;51.686;8.684;2023-02-18T07:47:38;99920.00;;;10.00
29423;BMP180;16399;51.686;8.684;2023-02-18T07:50:43;99928.00;;;10.00
29423;BMP180;16399;51.686;8.684;2023-02-18T07:53:46;99918.00;;;10.00
29423;BMP180;16399;51.686;8.684;2023-02-18T07:56:48;99921.00;;;10.00
29423;BMP180;16399;51.686;8.684;2023-02-18T07:59:51;99932.00;;;10.00
29423;BMP180;16399;51.686;8.684;2023-02-18T08:02:53;99926.00;;;10.00
29423;BMP180;16399;51.686;8.684;2023-02-18T08:05:56;99920.00;;;10.00
29423;BMP180;16399;51.686;8.684;2023-02-18T08:08:58;99919.00;;;10.00
29423;BMP180;16399;51.686;8.684;2023-02-18T08:12:01;99927.00;;;10.00
29423;BMP180;16399;51.686;8.684;2023-02-18T08:15:03;99934.00;;;10.00
29423;BMP180;16399;51.686;8.684;2023-02-18T08:18:08;99927.00;;;10.00
29423;BMP180;16399;51.686;8.684;2023-02-18T08:21:11;99922.00;;;10.00
29423;BMP180;16399;51.686;8.684;2023-02-18T08:24:13;99934.00;;;10.00
29423;BMP180;16399;51.686;8.684;2023-02-18T08:27:15;99925.00;;;10.00
29423;BMP180;16399;51.686;8.684;2023-02-18T08:30:18;99936.00;;;10.00
29423;BMP180;16399;51.686;8.684;2023-02-18T08:33:21;99932.00;;;10.00
29423;BMP180;16399;51.686;8.684;2023-02-18T08:36:24;99933.00;;;10.00
29423;BMP180;16399;51.686;8.684;2023-02-18T08:39:26;99939.00;;;10.00
29423;BMP180;16399;51.686;8.684;2023-02-18T08:42:28;99925.00;;;10.00
29423;BMP180;16399;51.686;8.684;2023-02-18T08:45:31;99926.00;;;10.00
29423;BMP180;16399;51.686;8.684;2023-02-18T08:48:33;99930.00;;;10.00
29423;BMP180;16399;51.686;8.684;2023-02-18T08:51:35;99922.00;;;10.00
29423;BMP180;16399;51.686;8.684;2023-02-18T08:54:38;99920.00;;;10.00
29423;BMP180;16399;51.686;8.684;2023-02-18T08:57:40;99924.00;;;9.90
29423;BMP180;16399;51.686;8.684;2023-02-18T09:00:43;99930.00;;;9.90
29423;BMP180;16399;51.686;8.684;2023-02-18T09:03:45;99921.00;;;9.90
29423;BMP180;16399;51.686;8.684;2023-02-18T09:06:49;99924.00;;;9.90
29423;BMP180;16399;51.686;8.684;2023-02-18T09:09:51;99936.00;;;9.80
29423;BMP180;16399;51.686;8.684;2023-02-18T09:12:53;99933.00;;;9.80
29423;BMP180;16399;51.686;8.684;2023-02-18T09:16:01;99921.00;;;9.80
29423;BMP180;16399;51.686;8.684;2023-02-18T09:19:04;99923.00;;;9.80
29423;BMP180;16399;51.686;8.684;2023-02-18T09:22:07;99924.00;;;9.70
29423;BMP180;16399;51.686;8.684;2023-02-18T09:25:09;99926.00;;;9.70
29423;BMP180;16399;51.686;8.684;2023-02-18T09:28:11;99913.00;;;9.80
29423;BMP180;16399;51.686;8.684;2023-02-18T09:31:17;99931.00;;;9.80
29423;BMP180;16399;51.686;8.684;2023-02-18T09:34:20;99919.00;;;9.80
29423;BMP180;16399;51.686;8.684;2023-02-18T09:37:22;99923.00;;;9.80
29423;BMP180;16399;51.686;8.684;2023-02-18T09:40:30;99897.00;;;9.90
29423;BMP180;16399;51.686;8.684;2023-02-18T09:43:39;99907.00;;;9.90
29423;BMP180;16399;51.686;8.684;2023-02-18T09:46:49;99895.00;;;9.90
29423;BMP180;16399;51.686;8.684;2023-02-18T09:49:59;99898.00;;;10.00
29423;BMP180;16399;51.686;8.684;2023-02-18T09:52:58;99907.00;;;10.00
29423;BMP180;16399;51.686;8.684;2023-02-18T09:56:00;99901.00;;;10.00
29423;BMP180;16399;51.686;8.684;2023-02-18T09:59:04;99892.00;;;10.00
29423;BMP180;16399;51.686;8.684;2023-02-18T10:02:11;99902.00;;;10.00
29423;BMP180;16399;51.686;8.684;2023-02-18T10:05:17;99900.00;;;10.00
29423;BMP180;16399;51.686;8.684;2023-02-18T10:08:28;99896.00;;;10.00
29423;BMP180;16399;51.686;8.684;2023-02-18T10:11:41;99899.00;;;10.00
29423;BMP180;16399;51.686;8.684;2023-02-18T10:14:39;99902.00;;;9.90
29423;BMP180;16399;51.686;8.684;2023-02-18T10:17:42;99882.00;;;9.90
29423;BMP180;16399;51.686;8.684;2023-02-18T10:20:44;99870.00;;;9.90
29423;BMP180;16399;51.686;8.684;2023-02-18T10:24:03;99888.00;;;9.80
29423;BMP180;16399;51.686;8.684;2023-02-18T10:27:06;99894.00;;;9.80
29423;BMP180;16399;51.686;8.684;2023-02-18T10:30:32;99896.00;;;9.70
29423;BMP180;16399;51.686;8.684;2023-02-18T10:34:03;99910.00;;;9.60
29423;BMP180;16399;51.686;8.684;2023-02-18T10:37:34;99895.00;;;9.60
29423;BMP180;16399;51.686;8.684;2023-02-18T10:40:46;99908.00;;;9.50
29423;BMP180;16399;51.686;8.684;2023-02-18T10:50:39;99906.00;;;9.50
29423;BMP180;16399;51.686;8.684;2023-02-18T10:53:40;99915.00;;;9.50
29423;BMP180;16399;51.686;8.684;2023-02-18T10:56:48;99918.00;;;9.50
29423;BMP180;16399;51.686;8.684;2023-02-18T10:59:56;99899.00;;;9.50
29423;BMP180;16399;51.686;8.684;2023-02-18T11:03:19;99920.00;;;9.60
29423;BMP180;16399;51.686;8.684;2023-02-18T11:06:26;99920.00;;;9.50
29423;BMP180;16399;51.686;8.684;2023-02-18T11:09:39;99914.00;;;9.50
29423;BMP180;16399;51.686;8.684;2023-02-18T11:12:54;99924.00;;;9.40
29423;BMP180;16399;51.686;8.684;2023-02-18T11:15:59;99929.00;;;9.40
29423;BMP180;16399;51.686;8.684;2023-02-18T11:19:02;99926.00;;;9.30
29423;BMP180;16399;51.686;8.684;2023-02-18T11:22:23;99925.00;;;9.30
29423;BMP180;16399;51.686;8.684;2023-02-18T11:25:24;99907.00;;;9.30
29423;BMP180;16399;51.686;8.684;2023-02-18T11:28:39;99915.00;;;9.30
29423;BMP180;16399;51.686;8.684;2023-02-18T11:31:46;99903.00;;;9.30
29423;BMP180;16399;51.686;8.684;2023-02-18T11:34:44;99907.00;;;9.40
29423;BMP180;16399;51.686;8.684;2023-02-18T11:37:47;99897.00;;;9.40
29423;BMP180;16399;51.686;8.684;2023-02-18T11:41:02;99905.00;;;9.30
29423;BMP180;16399;51.686;8.684;2023-02-18T11:44:02;99911.00;;;9.30
29423;BMP180;16399;51.686;8.684;2023-02-18T11:47:08;99898.00;;;9.40
29423;BMP180;16399;51.686;8.684;2023-02-18T11:50:14;99912.00;;;9.30
29423;BMP180;16399;51.686;8.684;2023-02-18T11:53:31;99917.00;;;9.30
29423;BMP180;16399;51.686;8.684;2023-02-18T11:56:35;99911.00;;;9.20
29423;BMP180;16399;51.686;8.684;2023-02-18T11:59:39;99916.00;;;9.30
29423;BMP180;16399;51.686;8.684;2023-02-18T12:02:43;99912.00;;;9.30
29423;BMP180;16399;51.686;8.684;2023-02-18T12:05:45;99913.00;;;9.30
29423;BMP180;16399;51.686;8.684;2023-02-18T12:08:51;99908.00;;;9.30
29423;BMP180;16399;51.686;8.684;2023-02-18T12:12:06;99924.00;;;9.30
29423;BMP180;16399;51.686;8.684;2023-02-18T12:15:12;99919.00;;;9.30
29423;BMP180;16399;51.686;8.684;2023-02-18T12:18:26;99919.00;;;9.30
29423;BMP180;16399;51.686;8.684;2023-02-18T12:21:42;99919.00;;;9.30
29423;BMP180;16399;51.686;8.684;2023-02-18T12:28:39;99911.00;;;9.30
29423;BMP180;16399;51.686;8.684;2023-02-18T12:31:46;99910.00;;;9.30
29423;BMP180;16399;51.686;8.684;2023-02-18T12:35:09;99910.00;;;9.20
29423;BMP180;16399;51.686;8.684;2023-02-18T12:41:49;99910.00;;;9.20
29423;BMP180;16399;51.686;8.684;2023-02-18T12:44:58;99908.00;;;9.20
29423;BMP180;16399;51.686;8.684;2023-02-18T12:51:42;99901.00;;;9.20
29423;BMP180;16399;51.686;8.684;2023-02-18T12:58:11;99919.00;;;9.20
29423;BMP180;16399;51.686;8.684;2023-02-18T13:01:18;99920.00;;;9.20
29423;BMP180;16399;51.686;8.684;2023-02-18T13:04:25;99922.00;;;9.20
29423;BMP180;16399;51.686;8.684;2023-02-18T13:07:37;99916.00;;;9.20
29423;BMP180;16399;51.686;8.684;2023-02-18T13:14:15;99919.00;;;9.20
29423;BMP180;16399;51.686;8.684;2023-02-18T13:17:19;99923.00;;;9.10
29423;BMP180;16399;51.686;8.684;2023-02-18T13:20:34;99919.00;;;9.20
29423;BMP180;16399;51.686;8.684;2023-02-18T13:23:37;99904.00;;;9.20
29423;BMP180;16399;51.686;8.684;2023-02-18T13:26:40;99919.00;;;9.20
29423;BMP180;16399;51.686;8.684;2023-02-18T13:33:22;99921.00;;;9.20
29423;BMP180;16399;51.686;8.684;2023-02-18T13:36:46;99924.00;;;9.20
29423;BMP180;16399;51.686;8.684;2023-02-18T13:39:56;99926.00;;;9.30
29423;BMP180;16399;51.686;8.684;2023-02-18T13:43:15;99927.00;;;9.30
29423;BMP180;16399;51.686;8.684;2023-02-18T13:46:13;99925.00;;;9.30
29423;BMP180;16399;51.686;8.684;2023-02-18T13:49:20;99921.00;;;9.40
29423;BMP180;16399;51.686;8.684;2023-02-18T13:52:23;99925.00;;;9.40
29423;BMP180;16399;51.686;8.684;2023-02-18T13:55:49;99917.00;;;9.40
29423;BMP180;16399;51.686;8.684;2023-02-18T13:58:54;99921.00;;;9.50
29423;BMP180;16399;51.686;8.684;2023-02-18T14:02:41;99928.00;;;9.50
29423;BMP180;16399;51.686;8.684;2023-02-18T14:05:20;99913.00;;;9.50
29423;BMP180;16399;51.686;8.684;2023-02-18T14:08:36;99919.00;;;9.60
29423;BMP180;16399;51.686;8.684;2023-02-18T14:11:48;99926.00;;;9.60
29423;BMP180;16399;51.686;8.684;2023-02-18T14:14:51;99919.00;;;9.70
29423;BMP180;16399;51.686;8.684;2023-02-18T14:21:33;99922.00;;;9.60
29423;BMP180;16399;51.686;8.684;2023-02-18T14:24:42;99927.00;;;9.60
29423;BMP180;16399;51.686;8.684;2023-02-18T14:27:45;99928.00;;;9.60
29423;BMP180;16399;51.686;8.684;2023-02-18T14:30:50;99940.00;;;9.60
29423;BMP180;16399;51.686;8.684;2023-02-18T14:34:24;99931.00;;;9.50
29423;BMP180;16399;51.686;8.684;2023-02-18T14:37:33;99934.00;;;9.50
29423;BMP180;16399;51.686;8.684;2023-02-18T14:40:40;99946.00;;;9.50
29423;BMP180;16399;51.686;8.684;2023-02-18T14:44:09;99948.00;;;9.40
29423;BMP180;16399;51.686;8.684;2023-02-18T14:47:26;99949.00;;;9.50
29423;BMP180;16399;51.686;8.684;2023-02-18T14:50:33;99948.00;;;9.50
29423;BMP180;16399;51.686;8.684;2023-02-18T14:53:42;99953.00;;;9.50
29423;BMP180;16399;51.686;8.684;2023-02-18T14:56:56;99947.00;;;9.40
29423;BMP180;16399;51.686;8.684;2023-02-18T14:59:56;99948.00;;;9.40
29423;BMP180;16399;51.686;8.684;2023-02-18T15:02:55;99956.00;;;9.40
29423;BMP180;16399;51.686;8.684;2023-02-18T15:05:57;99959.00;;;9.40
29423;BMP180;16399;51.686;8.684;2023-02-18T15:09:01;99961.00;;;9.40
29423;BMP180;16399;51.686;8.684;2023-02-18T15:12:05;99966.00;;;9.40
29423;BMP180;16399;51.686;8.684;2023-02-18T15:15:11;99964.00;;;9.40
29423;BMP180;16399;51.686;8.684;2023-02-18T15:18:21;99966.00;;;9.40
29423;BMP180;16399;51.686;8.684;2023-02-18T15:21:36;99965.00;;;9.40
29423;BMP180;16399;51.686;8.684;2023-02-18T15:24:39;99963.00;;;9.40
29423;BMP180;16399;51.686;8.684;2023-02-18T15:27:43;99961.00;;;9.40
29423;BMP180;16399;51.686;8.684;2023-02-18T15:30:48;99970.00;;;9.40
29423;BMP180;16399;51.686;8.684;2023-02-18T15:33:51;99969.00;;;9.50
29423;BMP180;16399;51.686;8.684;2023-02-18T15:36:54;99964.00;;;9.50
29423;BMP180;16399;51.686;8.684;2023-02-18T15:39:57;99972.00;;;9.50
29423;BMP180;16399;51.686;8.684;2023-02-18T15:43:00;99972.00;;;9.50
29423;BMP180;16399;51.686;8.684;2023-02-18T15:46:11;99968.00;;;9.50
29423;BMP180;16399;51.686;8.684;2023-02-18T15:49:16;99968.00;;;9.50
29423;BMP180;16399;51.686;8.684;2023-02-18T15:52:28;99972.00;;;9.50
29423;BMP180;16399;51.686;8.684;2023-02-18T15:55:32;99968.00;;;9.50
29423;BMP180;16399;51.686;8.684;2023-02-18T15:58:35;99964.00;;;9.50
29423;BMP180;16399;51.686;8.684;2023-02-18T16:01:37;99964.00;;;9.50
29423;BMP180;16399;51.686;8.684;2023-02-18T16:04:41;99965.00;;;9.50
29423;BMP180;16399;51.686;8.684;2023-02-18T16:11:02;99965.00;;;9.50
29423;BMP180;16399;51.686;8.684;2023-02-18T16:14:04;99969.00;;;9.50
29423;BMP180;16399;51.686;8.684;2023-02-18T16:17:18;99966.00;;;9.50
29423;BMP180;16399;51.686;8.684;2023-02-18T16:20:28;99972.00;;;9.50
29423;BMP180;16399;51.686;8.684;2023-02-18T16:23:40;99978.00;;;9.50
29423;BMP180;16399;51.686;8.684;2023-02-18T16:26:40;99983.00;;;9.50
29423;BMP180;16399;51.686;8.684;2023-02-18T16:29:44;99987.00;;;9.50
29423;BMP180;16399;51.686;8.684;2023-02-18T16:32:47;99983.00;;;9.60
29423;BMP180;16399;51.686;8.684;2023-02-18T16:35:49;99981.00;;;9.60
29423;BMP180;16399;51.686;8.684;2023-02-18T16:38:51;99983.00;;;9.60
29423;BMP180;16399;51.686;8.684;2023-02-18T16:41:54;99990.00;;;9.60
29423;BMP180;16399;51.686;8.684;2023-02-18T16:44:56;99991.00;;;9.60
29423;BMP180;16399;51.686;8.684;2023-02-18T16:47:58;99984.00;;;9.60
29423;BMP180;16399;51.686;8.684;2023-02-18T16:51:16;99992.00;;;9.60
29423;BMP180;16399;51.686;8.684;2023-02-18T16:54:11;99992.00;;;9.60
29423;BMP180;16399;51.686;8.684;2023-02-18T16:57:13;99989.00;;;9.70
29423;BMP180;16399;51.686;8.684;2023-02-18T17:00:16;99992.00;;;9.70
29423;BMP180;16399;51.686;8.684;2023-02-18T17:03:19;99996.00;;;9.70
29423;BMP180;16399;51.686;8.684;2023-02-18T17:06:21;99993.00;;;9.70
29423;BMP180;16399;51.686;8.684;2023-02-18T17:09:24;99998.00;;;9.70
29423;BMP180;16399;51.686;8.684;2023-02-18T17:12:27;99994.00;;;9.60
29423;BMP180;16399;51.686;8.684;2023-02-18T17:15:34;99997.00;;;9.60
29423;BMP180;16399;51.686;8.684;2023-02-18T17:18:36;100004.00;;;9.60
29423;BMP180;16399;51.686;8.684;2023-02-18T17:21:39;99997.00;;;9.60
29423;BMP180;16399;51.686;8.684;2023-02-18T17:24:41;100011.00;;;9.60
29423;BMP180;16399;51.686;8.684;2023-02-18T17:27:44;100013.00;;;9.60
29423;BMP180;16399;51.686;8.684;2023-02-18T17:30:52;100012.00;;;9.60
29423;BMP180;16399;51.686;8.684;2023-02-18T17:33:58;100015.00;;;9.60
29423;BMP180;16399;51.686;8.684;2023-02-18T17:37:01;100010.00;;;9.60
29423;BMP180;16399;51.686;8.684;2023-02-18T17:40:04;100018.00;;;9.60
29423;BMP180;16399;51.686;8.684;2023-02-18T17:43:09;100018.00;;;9.60
29423;BMP180;16399;51.686;8.684;2023-02-18T17:46:15;100019.00;;;9.60
29423;BMP180;16399;51.686;8.684;2023-02-18T17:49:18;100037.00;;;9.60
29423;BMP180;16399;51.686;8.684;2023-02-18T17:52:28;100030.00;;;9.60
29423;BMP180;16399;51.686;8.684;2023-02-18T17:55:32;100020.00;;;9.60
29423;BMP180;16399;51.686;8.684;2023-02-18T17:58:36;100022.00;;;9.60
29423;BMP180;16399;51.686;8.684;2023-02-18T18:01:39;100021.00;;;9.60
29423;BMP180;16399;51.686;8.684;2023-02-18T18:04:42;100022.00;;;9.60
29423;BMP180;16399;51.686;8.684;2023-02-18T18:07:44;100019.00;;;9.60
29423;BMP180;16399;51.686;8.684;2023-02-18T18:10:53;100032.00;;;9.60
29423;BMP180;16399;51.686;8.684;2023-02-18T18:13:56;100006.00;;;9.60
29423;BMP180;16399;51.686;8.684;2023-02-18T18:16:58;100022.00;;;9.60
29423;BMP180;16399;51.686;8.684;2023-02-18T18:20:02;100029.00;;;9.60
29423;BMP180;16399;51.686;8.684;2023-02-18T18:23:06;100037.00;;;9.70
29423;BMP180;16399;51.686;8.684;2023-02-18T18:26:08;100026.00;;;9.70
29423;BMP180;16399;51.686;8.684;2023-02-18T18:29:11;100023.00;;;9.70
29423;BMP180;16399;51.686;8.684;2023-02-18T18:32:13;100019.00;;;9.70
29423;BMP180;16399;51.686;8.684;2023-02-18T18:35:22;100014.00;;;9.70
29423;BMP180;16399;51.686;8.684;2023-02-18T18:38:25;100021.00;;;9.70
29423;BMP180;16399;51.686;8.684;2023-02-18T18:41:28;100012.00;;;9.70
29423;BMP180;16399;51.686;8.684;2023-02-18T18:44:30;100013.00;;;9.70
29423;BMP180;16399;51.686;8.684;2023-02-18T18:47:32;100036.00;;;9.70
29423;BMP180;16399;51.686;8.684;2023-02-18T18:50:35;100032.00;;;9.70